sensor_id;sensor_type;location;lat;lon;timestamp;temperature;humidity
6964;DHT22;3522;50.856;7.278;2023-04-24T00:00:48;10.90;99.90
6964;DHT22;3522;50.856;7.278;2023-04-24T00:03:16;10.90;99.90
6964;DHT22;3522;50.856;7.278;2023-04-24T00:05:46;10.90;99.90
6964;DHT22;3522;50.856;7.278;2023-04-24T00:08:13;10.90;99.90
6964;DHT22;3522;50.856;7.278;2023-04-24T00:10:39;10.90;99.90
6964;DHT22;3522;50.856;7.278;2023-04-24T00:13:06;10.90;99.90
6964;DHT22;3522;50.856;7.278;2023-04-24T00:15:32;10.90;99.90
6964;DHT22;3522;50.856;7.278;2023-04-24T00:18:00;10.90;99.90
6964;DHT22;3522;50.856;7.278;2023-04-24T00:20:27;10.90;99.90
6964;DHT22;3522;50.856;7.278;2023-04-24T00:22:54;11.00;99.90
6964;DHT22;3522;50.856;7.278;2023-04-24T00:25:21;11.00;99.90
6964;DHT22;3522;50.856;7.278;2023-04-24T00:27:47;11.00;99.90
6964;DHT22;3522;50.856;7.278;2023-04-24T00:30:14;11.00;99.90
6964;DHT22;3522;50.856;7.278;2023-04-24T00:32:40;11.00;99.90
6964;DHT22;3522;50.856;7.278;2023-04-24T00:35:08;11.00;99.90
6964;DHT22;3522;50.856;7.278;2023-04-24T00:37:36;11.00;99.90
6964;DHT22;3522;50.856;7.278;2023-04-24T00:40:03;11.00;99.90
6964;DHT22;3522;50.856;7.278;2023-04-24T00:42:29;11.00;99.90
6964;DHT22;3522;50.856;7.278;2023-04-24T00:44:56;10.90;99.90
6964;DHT22;3522;50.856;7.278;2023-04-24T00:47:23;11.00;99.90
6964;DHT22;3522;50.856;7.278;2023-04-24T00:49:50;10.90;99.90
6964;DHT22;3522;50.856;7.278;2023-04-24T00:52:18;10.90;99.90
6964;DHT22;3522;50.856;7.278;2023-04-24T00:54:45;10.90;99.90
6964;DHT22;3522;50.856;7.278;2023-04-24T00:57:12;10.80;99.90
6964;DHT22;3522;50.856;7.278;2023-04-24T00:59:39;10.90;99.90
6964;DHT22;3522;50.856;7.278;2023-04-24T01:02:06;10.90;99.90
6964;DHT22;3522;50.856;7.278;2023-04-24T01:04:34;10.90;99.90
6964;DHT22;3522;50.856;7.278;2023-04-24T01:07:00;11.00;99.90
6964;DHT22;3522;50.856;7.278;2023-04-24T01:09:29;11.00;99.90
6964;DHT22;3522;50.856;7.278;2023-04-24T01:11:56;10.90;99.90
6964;DHT22;3522;50.856;7.278;2023-04-24T01:14:22;10.90;99.90
6964;DHT22;3522;50.856;7.278;2023-04-24T01:16:49;10.90;99.90
6964;DHT22;3522;50.856;7.278;2023-04-24T01:19:16;10.90;99.90
6964;DHT22;3522;50.856;7.278;2023-04-24T01:21:43;10.80;99.90
6964;DHT22;3522;50.856;7.278;2023-04-24T01:24:24;10.90;99.90
6964;DHT22;3522;50.856;7.278;2023-04-24T01:26:51;10.80;99.90
6964;DHT22;3522;50.856;7.278;2023-04-24T01:29:17;10.80;99.90
6964;DHT22;3522;50.856;7.278;2023-04-24T01:31:44;10.80;99.90
6964;DHT22;3522;50.856;7.278;2023-04-24T01:34:10;10.80;99.90
6964;DHT22;3522;50.856;7.278;2023-04-24T01:36:37;10.80;99.90
6964;DHT22;3522;50.856;7.278;2023-04-24T01:39:04;10.80;99.90
6964;DHT22;3522;50.856;7.278;2023-04-24T01:41:32;10.80;99.90
6964;DHT22;3522;50.856;7.278;2023-04-24T01:43:58;10.80;99.90
6964;DHT22;3522;50.856;7.278;2023-04-24T01:46:25;10.90;99.90
6964;DHT22;3522;50.856;7.278;2023-04-24T01:48:52;10.80;99.90
6964;DHT22;3522;50.856;7.278;2023-04-24T01:51:18;10.70;99.90
6964;DHT22;3522;50.856;7.278;2023-04-24T01:53:45;10.60;99.90
6964;DHT22;3522;50.856;7.278;2023-04-24T01:56:12;10.50;99.90
6964;DHT22;3522;50.856;7.278;2023-04-24T01:58:39;10.40;99.90
6964;DHT22;3522;50.856;7.278;2023-04-24T02:01:06;10.30;99.90
6964;DHT22;3522;50.856;7.278;2023-04-24T02:03:33;10.30;99.90
6964;DHT22;3522;50.856;7.278;2023-04-24T02:05:59;10.20;99.90
6964;DHT22;3522;50.856;7.278;2023-04-24T02:08:26;10.20;99.90
6964;DHT22;3522;50.856;7.278;2023-04-24T02:10:52;10.10;99.90
6964;DHT22;3522;50.856;7.278;2023-04-24T02:13:19;10.10;99.90
6964;DHT22;3522;50.856;7.278;2023-04-24T02:15:47;10.10;99.90
6964;DHT22;3522;50.856;7.278;2023-04-24T02:18:13;10.10;99.90
6964;DHT22;3522;50.856;7.278;2023-04-24T02:20:40;10.00;99.90
6964;DHT22;3522;50.856;7.278;2023-04-24T02:23:07;10.10;99.90
6964;DHT22;3522;50.856;7.278;2023-04-24T02:25:33;10.00;99.90
6964;DHT22;3522;50.856;7.278;2023-04-24T02:28:00;10.00;99.90
6964;DHT22;3522;50.856;7.278;2023-04-24T02:30:27;10.00;99.90
6964;DHT22;3522;50.856;7.278;2023-04-24T02:32:55;10.00;99.90
6964;DHT22;3522;50.856;7.278;2023-04-24T02:35:22;10.00;99.90
6964;DHT22;3522;50.856;7.278;2023-04-24T02:37:48;10.00;99.90
6964;DHT22;3522;50.856;7.278;2023-04-24T02:40:15;9.90;99.90
6964;DHT22;3522;50.856;7.278;2023-04-24T02:42:41;9.90;99.90
6964;DHT22;3522;50.856;7.278;2023-04-24T02:45:08;9.90;99.90
6964;DHT22;3522;50.856;7.278;2023-04-24T02:47:35;9.90;99.90
6964;DHT22;3522;50.856;7.278;2023-04-24T02:50:03;9.80;99.90
6964;DHT22;3522;50.856;7.278;2023-04-24T02:52:30;9.80;99.90
6964;DHT22;3522;50.856;7.278;2023-04-24T02:54:56;9.70;99.90
6964;DHT22;3522;50.856;7.278;2023-04-24T02:57:23;9.60;99.90
6964;DHT22;3522;50.856;7.278;2023-04-24T02:59:49;9.50;99.90
6964;DHT22;3522;50.856;7.278;2023-04-24T03:02:16;9.40;99.90
6964;DHT22;3522;50.856;7.278;2023-04-24T03:04:42;9.40;99.90
6964;DHT22;3522;50.856;7.278;2023-04-24T03:07:12;9.30;99.90
6964;DHT22;3522;50.856;7.278;2023-04-24T03:09:39;9.30;99.90
6964;DHT22;3522;50.856;7.278;2023-04-24T03:12:06;9.20;99.90
6964;DHT22;3522;50.856;7.278;2023-04-24T03:14:33;9.20;99.90
6964;DHT22;3522;50.856;7.278;2023-04-24T03:17:00;9.20;99.90
6964;DHT22;3522;50.856;7.278;2023-04-24T03:19:26;9.20;99.90
6964;DHT22;3522;50.856;7.278;2023-04-24T03:21:53;9.10;99.90
6964;DHT22;3522;50.856;7.278;2023-04-24T03:24:21;9.20;99.90
6964;DHT22;3522;50.856;7.278;2023-04-24T03:26:47;9.20;99.90
6964;DHT22;3522;50.856;7.278;2023-04-24T03:29:14;9.20;99.90
6964;DHT22;3522;50.856;7.278;2023-04-24T03:31:41;9.10;99.90
6964;DHT22;3522;50.856;7.278;2023-04-24T03:34:07;9.10;99.90
6964;DHT22;3522;50.856;7.278;2023-04-24T03:36:34;9.10;99.90
6964;DHT22;3522;50.856;7.278;2023-04-24T03:39:00;9.10;99.90
6964;DHT22;3522;50.856;7.278;2023-04-24T03:41:28;9.00;99.90
6964;DHT22;3522;50.856;7.278;2023-04-24T03:43:55;9.00;99.90
6964;DHT22;3522;50.856;7.278;2023-04-24T03:46:22;8.90;99.90
6964;DHT22;3522;50.856;7.278;2023-04-24T03:48:48;8.90;99.90
6964;DHT22;3522;50.856;7.278;2023-04-24T03:51:15;8.80;99.90
6964;DHT22;3522;50.856;7.278;2023-04-24T03:53:41;8.80;99.90
6964;DHT22;3522;50.856;7.278;2023-04-24T03:56:08;8.80;99.90
6964;DHT22;3522;50.856;7.278;2023-04-24T03:58:36;8.80;99.90
6964;DHT22;3522;50.856;7.278;2023-04-24T04:01:02;8.70;99.90
6964;DHT22;3522;50.856;7.278;2023-04-24T04:03:29;8.70;99.90
6964;DHT22;3522;50.856;7.278;2023-04-24T04:05:55;8.70;99.90
6964;DHT22;3522;50.856;7.278;2023-04-24T04:08:22;8.70;99.90
6964;DHT22;3522;50.856;7.278;2023-04-24T04:10:48;8.70;99.90
6964;DHT22;3522;50.856;7.278;2023-04-24T04:13:15;8.70;99.90
6964;DHT22;3522;50.856;7.278;2023-04-24T04:15:43;8.70;99.90
6964;DHT22;3522;50.856;7.278;2023-04-24T04:18:09;8.60;99.90
6964;DHT22;3522;50.856;7.278;2023-04-24T04:20:36;8.60;99.90
6964;DHT22;3522;50.856;7.278;2023-04-24T04:23:02;8.60;99.90
6964;DHT22;3522;50.856;7.278;2023-04-24T04:25:29;8.60;99.90
6964;DHT22;3522;50.856;7.278;2023-04-24T04:27:55;8.60;99.90
6964;DHT22;3522;50.856;7.278;2023-04-24T04:30:23;8.60;99.90
6964;DHT22;3522;50.856;7.278;2023-04-24T04:32:51;8.60;99.90
6964;DHT22;3522;50.856;7.278;2023-04-24T04:35:17;8.60;99.90
6964;DHT22;3522;50.856;7.278;2023-04-24T04:37:44;8.70;99.90
6964;DHT22;3522;50.856;7.278;2023-04-24T04:40:11;8.70;99.90
6964;DHT22;3522;50.856;7.278;2023-04-24T04:42:38;8.80;99.90
6964;DHT22;3522;50.856;7.278;2023-04-24T04:45:06;8.70;99.90
6964;DHT22;3522;50.856;7.278;2023-04-24T04:47:34;8.80;99.90
6964;DHT22;3522;50.856;7.278;2023-04-24T04:50:02;8.80;99.90
6964;DHT22;3522;50.856;7.278;2023-04-24T04:52:29;8.80;99.90
6964;DHT22;3522;50.856;7.278;2023-04-24T04:54:55;8.80;99.90
6964;DHT22;3522;50.856;7.278;2023-04-24T04:57:22;8.80;99.90
6964;DHT22;3522;50.856;7.278;2023-04-24T04:59:49;8.80;99.90
6964;DHT22;3522;50.856;7.278;2023-04-24T05:02:16;8.80;99.90
6964;DHT22;3522;50.856;7.278;2023-04-24T05:04:42;8.90;99.90
6964;DHT22;3522;50.856;7.278;2023-04-24T05:07:11;8.80;99.90
6964;DHT22;3522;50.856;7.278;2023-04-24T05:09:38;8.80;99.90
6964;DHT22;3522;50.856;7.278;2023-04-24T05:12:04;8.80;99.90
6964;DHT22;3522;50.856;7.278;2023-04-24T05:14:31;8.90;99.90
6964;DHT22;3522;50.856;7.278;2023-04-24T05:16:57;8.80;99.90
6964;DHT22;3522;50.856;7.278;2023-04-24T05:19:25;8.80;99.90
6964;DHT22;3522;50.856;7.278;2023-04-24T05:21:52;8.80;99.90
6964;DHT22;3522;50.856;7.278;2023-04-24T05:24:19;8.80;99.90
6964;DHT22;3522;50.856;7.278;2023-04-24T05:26:46;8.80;99.90
6964;DHT22;3522;50.856;7.278;2023-04-24T05:29:13;8.80;99.90
6964;DHT22;3522;50.856;7.278;2023-04-24T05:31:39;8.80;99.90
6964;DHT22;3522;50.856;7.278;2023-04-24T05:34:06;8.80;99.90
6964;DHT22;3522;50.856;7.278;2023-04-24T05:36:32;8.80;99.90
6964;DHT22;3522;50.856;7.278;2023-04-24T05:38:59;8.90;99.90
6964;DHT22;3522;50.856;7.278;2023-04-24T05:41:27;8.90;99.90
6964;DHT22;3522;50.856;7.278;2023-04-24T05:43:54;8.90;99.90
6964;DHT22;3522;50.856;7.278;2023-04-24T05:46:20;8.90;99.90
6964;DHT22;3522;50.856;7.278;2023-04-24T05:48:47;8.90;99.90
6964;DHT22;3522;50.856;7.278;2023-04-24T05:51:13;9.00;99.90
6964;DHT22;3522;50.856;7.278;2023-04-24T05:53:40;8.90;99.90
6964;DHT22;3522;50.856;7.278;2023-04-24T05:56:06;9.00;99.90
6964;DHT22;3522;50.856;7.278;2023-04-24T05:58:34;8.90;99.90
6964;DHT22;3522;50.856;7.278;2023-04-24T06:01:02;8.90;99.90
6964;DHT22;3522;50.856;7.278;2023-04-24T06:03:29;8.90;99.90
6964;DHT22;3522;50.856;7.278;2023-04-24T06:05:56;8.90;99.90
6964;DHT22;3522;50.856;7.278;2023-04-24T06:08:22;8.90;99.90
6964;DHT22;3522;50.856;7.278;2023-04-24T06:10:49;8.90;99.90
6964;DHT22;3522;50.856;7.278;2023-04-24T06:13:15;8.80;99.90
6964;DHT22;3522;50.856;7.278;2023-04-24T06:15:44;8.90;99.90
6964;DHT22;3522;50.856;7.278;2023-04-24T06:18:10;8.80;99.90
6964;DHT22;3522;50.856;7.278;2023-04-24T06:20:37;8.80;99.90
6964;DHT22;3522;50.856;7.278;2023-04-24T06:23:04;8.90;99.90
6964;DHT22;3522;50.856;7.278;2023-04-24T06:25:31;8.90;99.90
6964;DHT22;3522;50.856;7.278;2023-04-24T06:27:58;8.90;99.90
6964;DHT22;3522;50.856;7.278;2023-04-24T06:30:24;8.90;99.90
6964;DHT22;3522;50.856;7.278;2023-04-24T06:32:53;8.90;99.90
6964;DHT22;3522;50.856;7.278;2023-04-24T06:35:20;9.00;99.90
6964;DHT22;3522;50.856;7.278;2023-04-24T06:37:46;9.00;99.90
6964;DHT22;3522;50.856;7.278;2023-04-24T06:40:13;9.00;99.90
6964;DHT22;3522;50.856;7.278;2023-04-24T06:42:40;9.00;99.90
6964;DHT22;3522;50.856;7.278;2023-04-24T06:45:07;8.90;99.90
6964;DHT22;3522;50.856;7.278;2023-04-24T06:47:34;8.80;99.90
6964;DHT22;3522;50.856;7.278;2023-04-24T06:50:02;8.80;99.90
6964;DHT22;3522;50.856;7.278;2023-04-24T06:52:29;8.80;99.90
6964;DHT22;3522;50.856;7.278;2023-04-24T06:54:59;8.70;99.90
6964;DHT22;3522;50.856;7.278;2023-04-24T06:57:26;8.70;99.90
6964;DHT22;3522;50.856;7.278;2023-04-24T06:59:53;8.60;99.90
6964;DHT22;3522;50.856;7.278;2023-04-24T07:02:19;8.70;99.90
6964;DHT22;3522;50.856;7.278;2023-04-24T07:04:46;8.60;99.90
6964;DHT22;3522;50.856;7.278;2023-04-24T07:07:14;8.40;99.90
6964;DHT22;3522;50.856;7.278;2023-04-24T07:09:41;8.30;99.90
6964;DHT22;3522;50.856;7.278;2023-04-24T07:12:09;8.40;99.90
6964;DHT22;3522;50.856;7.278;2023-04-24T07:14:36;8.30;99.90
6964;DHT22;3522;50.856;7.278;2023-04-24T07:17:03;8.30;99.90
6964;DHT22;3522;50.856;7.278;2023-04-24T07:19:29;8.30;99.90
6964;DHT22;3522;50.856;7.278;2023-04-24T07:21:56;8.30;99.90
6964;DHT22;3522;50.856;7.278;2023-04-24T07:24:25;8.30;99.90
6964;DHT22;3522;50.856;7.278;2023-04-24T07:26:51;8.20;99.90
6964;DHT22;3522;50.856;7.278;2023-04-24T07:29:18;8.20;99.90
6964;DHT22;3522;50.856;7.278;2023-04-24T07:31:46;8.20;99.90
6964;DHT22;3522;50.856;7.278;2023-04-24T07:34:12;8.20;99.90
6964;DHT22;3522;50.856;7.278;2023-04-24T07:36:40;8.20;99.90
6964;DHT22;3522;50.856;7.278;2023-04-24T07:39:07;8.20;99.90
6964;DHT22;3522;50.856;7.278;2023-04-24T07:41:35;8.20;99.90
6964;DHT22;3522;50.856;7.278;2023-04-24T07:44:01;8.20;99.90
6964;DHT22;3522;50.856;7.278;2023-04-24T07:46:29;8.20;99.90
6964;DHT22;3522;50.856;7.278;2023-04-24T07:48:55;8.20;99.90
6964;DHT22;3522;50.856;7.278;2023-04-24T07:51:24;8.20;99.90
6964;DHT22;3522;50.856;7.278;2023-04-24T07:53:52;8.20;99.90
6964;DHT22;3522;50.856;7.278;2023-04-24T07:56:19;8.20;99.90
6964;DHT22;3522;50.856;7.278;2023-04-24T07:58:47;8.20;99.90
6964;DHT22;3522;50.856;7.278;2023-04-24T08:01:14;8.20;99.90
6964;DHT22;3522;50.856;7.278;2023-04-24T08:03:40;8.20;99.90
6964;DHT22;3522;50.856;7.278;2023-04-24T08:06:07;8.20;99.90
6964;DHT22;3522;50.856;7.278;2023-04-24T08:08:33;8.20;99.90
6964;DHT22;3522;50.856;7.278;2023-04-24T08:11:00;8.20;99.90
6964;DHT22;3522;50.856;7.278;2023-04-24T08:13:27;8.20;99.90
6964;DHT22;3522;50.856;7.278;2023-04-24T08:15:55;8.10;99.90
6964;DHT22;3522;50.856;7.278;2023-04-24T08:18:22;8.00;99.90
6964;DHT22;3522;50.856;7.278;2023-04-24T08:20:48;8.00;99.90
6964;DHT22;3522;50.856;7.278;2023-04-24T08:23:15;8.00;99.90
6964;DHT22;3522;50.856;7.278;2023-04-24T08:25:42;8.00;99.90
6964;DHT22;3522;50.856;7.278;2023-04-24T08:28:08;7.70;99.90
6964;DHT22;3522;50.856;7.278;2023-04-24T08:30:35;7.70;99.90
6964;DHT22;3522;50.856;7.278;2023-04-24T08:33:03;7.60;99.90
6964;DHT22;3522;50.856;7.278;2023-04-24T08:35:30;7.60;99.90
6964;DHT22;3522;50.856;7.278;2023-04-24T08:37:56;7.60;99.90
6964;DHT22;3522;50.856;7.278;2023-04-24T08:40:27;7.60;99.90
6964;DHT22;3522;50.856;7.278;2023-04-24T08:42:54;7.60;99.90
6964;DHT22;3522;50.856;7.278;2023-04-24T08:45:22;7.60;99.90
6964;DHT22;3522;50.856;7.278;2023-04-24T08:47:49;7.50;99.90
6964;DHT22;3522;50.856;7.278;2023-04-24T08:50:17;7.50;99.90
6964;DHT22;3522;50.856;7.278;2023-04-24T08:52:44;7.40;99.90
6964;DHT22;3522;50.856;7.278;2023-04-24T08:55:11;7.40;99.90
6964;DHT22;3522;50.856;7.278;2023-04-24T08:57:37;7.30;99.90
6964;DHT22;3522;50.856;7.278;2023-04-24T09:00:06;7.20;99.90
6964;DHT22;3522;50.856;7.278;2023-04-24T09:02:33;7.10;99.90
6964;DHT22;3522;50.856;7.278;2023-04-24T09:05:00;7.10;99.90
6964;DHT22;3522;50.856;7.278;2023-04-24T09:07:29;7.00;99.90
6964;DHT22;3522;50.856;7.278;2023-04-24T09:09:56;6.90;99.90
6964;DHT22;3522;50.856;7.278;2023-04-24T09:12:23;6.90;99.90
6964;DHT22;3522;50.856;7.278;2023-04-24T09:14:50;6.90;99.90
6964;DHT22;3522;50.856;7.278;2023-04-24T09:17:17;6.90;99.90
6964;DHT22;3522;50.856;7.278;2023-04-24T09:19:44;6.90;99.90
6964;DHT22;3522;50.856;7.278;2023-04-24T09:22:10;6.90;99.90
6964;DHT22;3522;50.856;7.278;2023-04-24T09:24:38;6.90;99.90
6964;DHT22;3522;50.856;7.278;2023-04-24T09:27:05;6.90;99.90
6964;DHT22;3522;50.856;7.278;2023-04-24T09:29:32;6.90;99.90
6964;DHT22;3522;50.856;7.278;2023-04-24T09:31:59;6.90;99.90
6964;DHT22;3522;50.856;7.278;2023-04-24T09:34:26;6.90;99.90
6964;DHT22;3522;50.856;7.278;2023-04-24T09:36:53;6.90;99.90
6964;DHT22;3522;50.856;7.278;2023-04-24T09:39:20;7.00;99.90
6964;DHT22;3522;50.856;7.278;2023-04-24T09:41:48;7.00;99.90
6964;DHT22;3522;50.856;7.278;2023-04-24T09:44:15;7.00;99.90
6964;DHT22;3522;50.856;7.278;2023-04-24T09:46:43;7.10;99.90
6964;DHT22;3522;50.856;7.278;2023-04-24T09:49:10;7.20;99.90
6964;DHT22;3522;50.856;7.278;2023-04-24T09:51:37;7.20;99.90
6964;DHT22;3522;50.856;7.278;2023-04-24T09:54:04;7.20;99.90
6964;DHT22;3522;50.856;7.278;2023-04-24T09:56:41;7.30;99.90
6964;DHT22;3522;50.856;7.278;2023-04-24T09:59:10;7.30;99.90
6964;DHT22;3522;50.856;7.278;2023-04-24T10:01:36;7.30;99.90
6964;DHT22;3522;50.856;7.278;2023-04-24T10:04:08;7.40;99.90
6964;DHT22;3522;50.856;7.278;2023-04-24T10:06:41;7.40;99.90
6964;DHT22;3522;50.856;7.278;2023-04-24T10:09:08;7.50;99.90
6964;DHT22;3522;50.856;7.278;2023-04-24T10:11:37;7.50;99.90
6964;DHT22;3522;50.856;7.278;2023-04-24T10:14:06;7.60;99.90
6964;DHT22;3522;50.856;7.278;2023-04-24T10:16:34;7.80;99.90
6964;DHT22;3522;50.856;7.278;2023-04-24T10:19:01;7.90;99.90
6964;DHT22;3522;50.856;7.278;2023-04-24T10:21:29;8.00;99.90
6964;DHT22;3522;50.856;7.278;2023-04-24T10:23:56;8.00;99.90
6964;DHT22;3522;50.856;7.278;2023-04-24T10:26:25;8.10;99.90
6964;DHT22;3522;50.856;7.278;2023-04-24T10:28:52;8.20;99.90
6964;DHT22;3522;50.856;7.278;2023-04-24T10:31:20;8.30;99.90
6964;DHT22;3522;50.856;7.278;2023-04-24T10:33:48;8.30;99.90
6964;DHT22;3522;50.856;7.278;2023-04-24T10:36:15;8.40;99.90
6964;DHT22;3522;50.856;7.278;2023-04-24T10:38:43;8.40;99.90
6964;DHT22;3522;50.856;7.278;2023-04-24T10:41:11;8.40;99.90
6964;DHT22;3522;50.856;7.278;2023-04-24T10:43:41;8.50;99.90
6964;DHT22;3522;50.856;7.278;2023-04-24T10:46:08;8.60;99.90
6964;DHT22;3522;50.856;7.278;2023-04-24T10:48:41;8.70;99.90
6964;DHT22;3522;50.856;7.278;2023-04-24T10:51:11;8.80;99.90
6964;DHT22;3522;50.856;7.278;2023-04-24T10:53:39;8.80;99.90
6964;DHT22;3522;50.856;7.278;2023-04-24T10:56:06;8.90;99.90
6964;DHT22;3522;50.856;7.278;2023-04-24T10:58:38;8.90;99.90
6964;DHT22;3522;50.856;7.278;2023-04-24T11:01:05;9.00;99.90
6964;DHT22;3522;50.856;7.278;2023-04-24T11:03:33;9.00;99.90
6964;DHT22;3522;50.856;7.278;2023-04-24T11:06:00;9.00;99.90
6964;DHT22;3522;50.856;7.278;2023-04-24T11:08:30;9.00;99.90
6964;DHT22;3522;50.856;7.278;2023-04-24T11:10:57;9.20;99.90
6964;DHT22;3522;50.856;7.278;2023-04-24T11:13:25;9.20;99.90
6964;DHT22;3522;50.856;7.278;2023-04-24T11:18:37;9.20;99.90
6964;DHT22;3522;50.856;7.278;2023-04-24T11:21:09;9.40;99.90
6964;DHT22;3522;50.856;7.278;2023-04-24T11:23:37;9.60;99.90
6964;DHT22;3522;50.856;7.278;2023-04-24T11:26:10;9.80;99.90
6964;DHT22;3522;50.856;7.278;2023-04-24T11:28:37;10.00;99.90
6964;DHT22;3522;50.856;7.278;2023-04-24T11:31:33;10.00;99.90
6964;DHT22;3522;50.856;7.278;2023-04-24T11:34:05;10.00;99.90
6964;DHT22;3522;50.856;7.278;2023-04-24T11:36:32;9.90;99.90
6964;DHT22;3522;50.856;7.278;2023-04-24T11:38:59;9.80;99.90
6964;DHT22;3522;50.856;7.278;2023-04-24T11:41:26;9.80;99.90
6964;DHT22;3522;50.856;7.278;2023-04-24T11:43:53;9.80;99.90
6964;DHT22;3522;50.856;7.278;2023-04-24T11:46:20;9.80;99.90
6964;DHT22;3522;50.856;7.278;2023-04-24T11:48:46;9.70;99.90
6964;DHT22;3522;50.856;7.278;2023-04-24T11:51:13;9.60;99.90
6964;DHT22;3522;50.856;7.278;2023-04-24T11:53:40;9.40;99.90
6964;DHT22;3522;50.856;7.278;2023-04-24T11:56:09;9.20;99.90
6964;DHT22;3522;50.856;7.278;2023-04-24T11:58:36;9.20;99.90
6964;DHT22;3522;50.856;7.278;2023-04-24T12:01:04;9.20;99.90
6964;DHT22;3522;50.856;7.278;2023-04-24T12:03:31;9.20;99.90
6964;DHT22;3522;50.856;7.278;2023-04-24T12:06:06;9.20;99.90
6964;DHT22;3522;50.856;7.278;2023-04-24T12:08:33;9.30;99.90
6964;DHT22;3522;50.856;7.278;2023-04-24T12:11:00;9.40;99.90
6964;DHT22;3522;50.856;7.278;2023-04-24T12:13:28;9.80;99.90
6964;DHT22;3522;50.856;7.278;2023-04-24T12:15:56;9.70;99.90
6964;DHT22;3522;50.856;7.278;2023-04-24T12:18:23;9.80;99.90
6964;DHT22;3522;50.856;7.278;2023-04-24T12:20:49;10.20;99.90
6964;DHT22;3522;50.856;7.278;2023-04-24T12:23:16;10.50;99.90
6964;DHT22;3522;50.856;7.278;2023-04-24T12:25:44;10.70;99.90
6964;DHT22;3522;50.856;7.278;2023-04-24T12:28:11;10.80;99.90
6964;DHT22;3522;50.856;7.278;2023-04-24T12:30:40;10.80;99.90
6964;DHT22;3522;50.856;7.278;2023-04-24T12:33:09;10.90;99.90
6964;DHT22;3522;50.856;7.278;2023-04-24T12:35:36;11.10;99.90
6964;DHT22;3522;50.856;7.278;2023-04-24T12:38:06;11.20;99.90
6964;DHT22;3522;50.856;7.278;2023-04-24T12:43:36;11.20;99.90
6964;DHT22;3522;50.856;7.278;2023-04-24T12:46:04;11.10;99.90
6964;DHT22;3522;50.856;7.278;2023-04-24T12:48:31;11.10;99.90
6964;DHT22;3522;50.856;7.278;2023-04-24T12:50:57;11.10;99.90
6964;DHT22;3522;50.856;7.278;2023-04-24T12:53:26;11.10;99.90
6964;DHT22;3522;50.856;7.278;2023-04-24T12:55:54;10.80;99.90
6964;DHT22;3522;50.856;7.278;2023-04-24T12:58:21;10.50;99.90
6964;DHT22;3522;50.856;7.278;2023-04-24T13:00:48;10.30;99.90
6964;DHT22;3522;50.856;7.278;2023-04-24T13:03:16;9.80;99.90
6964;DHT22;3522;50.856;7.278;2023-04-24T13:05:43;9.80;99.90
6964;DHT22;3522;50.856;7.278;2023-04-24T13:08:09;9.90;99.90
6964;DHT22;3522;50.856;7.278;2023-04-24T13:10:38;10.20;99.90
6964;DHT22;3522;50.856;7.278;2023-04-24T13:13:04;10.60;99.90
6964;DHT22;3522;50.856;7.278;2023-04-24T13:15:31;10.90;99.90
6964;DHT22;3522;50.856;7.278;2023-04-24T13:17:58;11.10;99.90
6964;DHT22;3522;50.856;7.278;2023-04-24T13:20:26;11.20;99.90
6964;DHT22;3522;50.856;7.278;2023-04-24T13:22:52;11.30;99.90
6964;DHT22;3522;50.856;7.278;2023-04-24T13:25:19;11.60;99.90
6964;DHT22;3522;50.856;7.278;2023-04-24T13:27:47;11.90;99.90
6964;DHT22;3522;50.856;7.278;2023-04-24T13:30:14;12.20;99.90
6964;DHT22;3522;50.856;7.278;2023-04-24T13:32:41;12.20;99.90
6964;DHT22;3522;50.856;7.278;2023-04-24T13:35:08;12.10;99.90
6964;DHT22;3522;50.856;7.278;2023-04-24T13:37:36;12.00;99.90
6964;DHT22;3522;50.856;7.278;2023-04-24T13:40:03;11.90;99.90
6964;DHT22;3522;50.856;7.278;2023-04-24T13:42:32;11.90;99.90
6964;DHT22;3522;50.856;7.278;2023-04-24T13:44:59;11.70;99.90
6964;DHT22;3522;50.856;7.278;2023-04-24T13:47:25;11.40;99.90
6964;DHT22;3522;50.856;7.278;2023-04-24T13:49:52;11.30;99.90
6964;DHT22;3522;50.856;7.278;2023-04-24T13:52:19;11.10;99.90
6964;DHT22;3522;50.856;7.278;2023-04-24T13:54:47;11.00;99.90
6964;DHT22;3522;50.856;7.278;2023-04-24T13:57:14;11.00;99.90
6964;DHT22;3522;50.856;7.278;2023-04-24T13:59:41;10.90;99.90
6964;DHT22;3522;50.856;7.278;2023-04-24T14:02:08;10.80;99.90
6964;DHT22;3522;50.856;7.278;2023-04-24T14:04:34;10.80;99.90
6964;DHT22;3522;50.856;7.278;2023-04-24T14:07:01;11.00;99.90
6964;DHT22;3522;50.856;7.278;2023-04-24T14:09:27;11.40;99.90
6964;DHT22;3522;50.856;7.278;2023-04-24T14:11:55;11.60;99.90
6964;DHT22;3522;50.856;7.278;2023-04-24T14:14:22;11.70;99.90
6964;DHT22;3522;50.856;7.278;2023-04-24T14:16:49;11.70;99.90
6964;DHT22;3522;50.856;7.278;2023-04-24T14:19:15;11.70;99.90
6964;DHT22;3522;50.856;7.278;2023-04-24T14:21:42;11.60;99.90
6964;DHT22;3522;50.856;7.278;2023-04-24T14:24:08;11.40;99.90
6964;DHT22;3522;50.856;7.278;2023-04-24T14:26:35;11.20;99.90
6964;DHT22;3522;50.856;7.278;2023-04-24T14:29:03;11.10;99.90
6964;DHT22;3522;50.856;7.278;2023-04-24T14:31:30;11.00;99.90
6964;DHT22;3522;50.856;7.278;2023-04-24T14:33:56;11.10;99.90
6964;DHT22;3522;50.856;7.278;2023-04-24T14:36:23;11.30;99.90
6964;DHT22;3522;50.856;7.278;2023-04-24T14:38:50;11.50;99.90
6964;DHT22;3522;50.856;7.278;2023-04-24T14:41:17;11.80;99.90
6964;DHT22;3522;50.856;7.278;2023-04-24T14:43:43;11.80;99.90
6964;DHT22;3522;50.856;7.278;2023-04-24T14:46:22;11.90;99.90
6964;DHT22;3522;50.856;7.278;2023-04-24T14:48:50;12.00;99.90
6964;DHT22;3522;50.856;7.278;2023-04-24T14:51:16;12.00;99.90
6964;DHT22;3522;50.856;7.278;2023-04-24T14:53:43;12.10;99.90
6964;DHT22;3522;50.856;7.278;2023-04-24T14:56:11;12.10;99.90
6964;DHT22;3522;50.856;7.278;2023-04-24T14:58:38;11.90;99.90
6964;DHT22;3522;50.856;7.278;2023-04-24T15:01:05;11.60;99.90
6964;DHT22;3522;50.856;7.278;2023-04-24T15:03:33;11.30;99.90
6964;DHT22;3522;50.856;7.278;2023-04-24T15:05:59;11.30;99.90
6964;DHT22;3522;50.856;7.278;2023-04-24T15:08:28;11.40;99.90
6964;DHT22;3522;50.856;7.278;2023-04-24T15:10:54;11.70;99.90
6964;DHT22;3522;50.856;7.278;2023-04-24T15:13:21;11.70;99.90
6964;DHT22;3522;50.856;7.278;2023-04-24T15:15:47;11.70;99.90
6964;DHT22;3522;50.856;7.278;2023-04-24T15:18:14;11.90;99.90
6964;DHT22;3522;50.856;7.278;2023-04-24T15:20:42;12.10;99.90
6964;DHT22;3522;50.856;7.278;2023-04-24T15:23:09;12.20;99.90
6964;DHT22;3522;50.856;7.278;2023-04-24T15:25:36;12.10;99.90
6964;DHT22;3522;50.856;7.278;2023-04-24T15:28:03;12.10;99.90
6964;DHT22;3522;50.856;7.278;2023-04-24T15:30:30;11.90;99.90
6964;DHT22;3522;50.856;7.278;2023-04-24T15:32:57;11.90;99.90
6964;DHT22;3522;50.856;7.278;2023-04-24T15:35:23;11.80;99.90
6964;DHT22;3522;50.856;7.278;2023-04-24T15:37:51;11.70;99.90
6964;DHT22;3522;50.856;7.278;2023-04-24T15:40:18;11.60;99.90
6964;DHT22;3522;50.856;7.278;2023-04-24T15:42:44;11.40;99.90
6964;DHT22;3522;50.856;7.278;2023-04-24T15:45:11;11.30;99.90
6964;DHT22;3522;50.856;7.278;2023-04-24T15:47:38;11.40;99.90
6964;DHT22;3522;50.856;7.278;2023-04-24T15:50:05;11.30;99.90
6964;DHT22;3522;50.856;7.278;2023-04-24T15:52:33;11.40;99.90
6964;DHT22;3522;50.856;7.278;2023-04-24T15:55:02;11.70;99.90
6964;DHT22;3522;50.856;7.278;2023-04-24T15:57:28;11.90;99.90
6964;DHT22;3522;50.856;7.278;2023-04-24T15:59:55;11.90;99.90
6964;DHT22;3522;50.856;7.278;2023-04-24T16:02:22;11.60;99.90
6964;DHT22;3522;50.856;7.278;2023-04-24T16:04:49;11.40;99.90
6964;DHT22;3522;50.856;7.278;2023-04-24T16:07:16;11.30;99.90
6964;DHT22;3522;50.856;7.278;2023-04-24T16:09:43;11.30;99.90
6964;DHT22;3522;50.856;7.278;2023-04-24T16:12:11;11.20;99.90
6964;DHT22;3522;50.856;7.278;2023-04-24T16:14:37;11.10;99.90
6964;DHT22;3522;50.856;7.278;2023-04-24T16:17:04;11.10;99.90